Decoded Metar for UASK (KAMENOGORSK in KAZAKHSTAN) (IATA:N/A) | Meteo·Mobile Aviation Weather
aviador You're here:

UASK Decoded Metar

KAMENOGORSK in KAZAKHSTAN
Report Time2019-10-22 13:00:00
UTC Time2019-10-22 13:36:16
Flight Rules vfr VFR
Wind090° at 4 kt
W.Decomp.*RWY 12: 3.2 kt HW 2.4 kt LCW
Visibility9999 m
Phenomena:N/A
Clouds:N/A
Expected CloudBase > 800 ft AGL from Temp-Dew spread
CeilingNone
Temp-3°C (ISA -16)
Dew Point-5°C (86% RH)
AAT-7.1°C
QNH1034 hPa
Density Alt-1,696 ft
Elevation938 ft
Report Wrong Elevation
Raw Report
METAR UASK 221300Z 09002MPS 9999 NSC M03/M05 Q1034 R30/090060 NOSIG
RMK QFE749/0999=

Extra information for UASK:More info

Metar Taf Metar & Taf Last 4 Metars F.Rules Stats Wind Profile Meteogram Temp Stats Airport Information Weather charts Add Link Nearby VenuesMetar ALERT Operation Metar Decoded Social comments